sensor_id;sensor_type;location;lat;lon;timestamp;pressure;altitude;pressure_sealevel;temperature
82297;BMP280;71899;51.992;8.648;2024-03-17T00:00:47;101006.38;;;6.31
82297;BMP280;71899;51.992;8.648;2024-03-17T00:03:13;101006.56;;;6.25
82297;BMP280;71899;51.992;8.648;2024-03-17T00:05:38;101012.69;;;6.22
82297;BMP280;71899;51.992;8.648;2024-03-17T00:08:03;101015.19;;;6.25
82297;BMP280;71899;51.992;8.648;2024-03-17T00:10:32;101012.59;;;5.99
82297;BMP280;71899;51.992;8.648;2024-03-17T00:12:57;101010.53;;;5.81
82297;BMP280;71899;51.992;8.648;2024-03-17T00:15:26;101010.97;;;5.66
82297;BMP280;71899;51.992;8.648;2024-03-17T00:17:51;101017.91;;;5.65
82297;BMP280;71899;51.992;8.648;2024-03-17T00:20:16;101015.28;;;5.67
82297;BMP280;71899;51.992;8.648;2024-03-17T00:22:46;101010.69;;;5.75
82297;BMP280;71899;51.992;8.648;2024-03-17T00:25:12;101013.47;;;5.69
82297;BMP280;71899;51.992;8.648;2024-03-17T00:27:37;101016.38;;;5.58
82297;BMP280;71899;51.992;8.648;2024-03-17T00:30:06;101013.53;;;5.38
82297;BMP280;71899;51.992;8.648;2024-03-17T00:32:35;101017.88;;;5.36
82297;BMP280;71899;51.992;8.648;2024-03-17T00:35:00;101014.88;;;5.51
82297;BMP280;71899;51.992;8.648;2024-03-17T00:37:26;101017.75;;;5.40
82297;BMP280;71899;51.992;8.648;2024-03-17T00:39:51;101013.53;;;5.38
82297;BMP280;71899;51.992;8.648;2024-03-17T00:42:16;101016.63;;;5.20
82297;BMP280;71899;51.992;8.648;2024-03-17T00:44:41;101014.47;;;5.03
82297;BMP280;71899;51.992;8.648;2024-03-17T00:47:07;101007.63;;;5.02
82297;BMP280;71899;51.992;8.648;2024-03-17T00:49:33;101000.31;;;5.16
82297;BMP280;71899;51.992;8.648;2024-03-17T00:51:58;101007.28;;;4.82
82297;BMP280;71899;51.992;8.648;2024-03-17T00:54:23;101004.50;;;4.89
82297;BMP280;71899;51.992;8.648;2024-03-17T00:56:48;101009.16;;;5.09
82297;BMP280;71899;51.992;8.648;2024-03-17T00:59:14;101007.16;;;4.86
82297;BMP280;71899;51.992;8.648;2024-03-17T01:01:39;101009.84;;;4.83
82297;BMP280;71899;51.992;8.648;2024-03-17T01:04:04;101000.81;;;4.66
82297;BMP280;71899;51.992;8.648;2024-03-17T01:06:30;100998.13;;;4.69
82297;BMP280;71899;51.992;8.648;2024-03-17T01:08:57;100990.16;;;4.78
82297;BMP280;71899;51.992;8.648;2024-03-17T01:11:22;100987.03;;;4.96
82297;BMP280;71899;51.992;8.648;2024-03-17T01:13:47;100985.34;;;4.95
82297;BMP280;71899;51.992;8.648;2024-03-17T01:16:13;100985.75;;;4.80
82297;BMP280;71899;51.992;8.648;2024-03-17T01:18:38;100988.94;;;4.57
82297;BMP280;71899;51.992;8.648;2024-03-17T01:21:04;100984.50;;;4.62
82297;BMP280;71899;51.992;8.648;2024-03-17T01:23:30;100987.59;;;4.75
82297;BMP280;71899;51.992;8.648;2024-03-17T01:25:55;100984.69;;;4.88
82297;BMP280;71899;51.992;8.648;2024-03-17T01:28:20;100982.91;;;4.89
82297;BMP280;71899;51.992;8.648;2024-03-17T01:30:45;100984.13;;;4.76
82297;BMP280;71899;51.992;8.648;2024-03-17T01:33:12;100980.00;;;4.69
82297;BMP280;71899;51.992;8.648;2024-03-17T01:35:37;100982.09;;;4.55
82297;BMP280;71899;51.992;8.648;2024-03-17T01:38:03;100978.47;;;4.62
82297;BMP280;71899;51.992;8.648;2024-03-17T01:40:29;100975.75;;;4.66
82297;BMP280;71899;51.992;8.648;2024-03-17T01:42:54;100977.69;;;4.58
82297;BMP280;71899;51.992;8.648;2024-03-17T01:45:20;100973.84;;;4.40
82297;BMP280;71899;51.992;8.648;2024-03-17T01:47:48;100978.22;;;4.38
82297;BMP280;71899;51.992;8.648;2024-03-17T01:50:16;100970.97;;;4.17
82297;BMP280;71899;51.992;8.648;2024-03-17T01:52:46;100972.13;;;4.06
82297;BMP280;71899;51.992;8.648;2024-03-17T01:55:12;100972.69;;;3.81
82297;BMP280;71899;51.992;8.648;2024-03-17T01:57:37;100968.50;;;3.76
82297;BMP280;71899;51.992;8.648;2024-03-17T02:00:02;100964.09;;;3.81
82297;BMP280;71899;51.992;8.648;2024-03-17T02:02:48;100960.53;;;3.85
82297;BMP280;71899;51.992;8.648;2024-03-17T02:05:13;100960.28;;;3.95
82297;BMP280;71899;51.992;8.648;2024-03-17T02:07:39;100955.28;;;3.88
82297;BMP280;71899;51.992;8.648;2024-03-17T02:10:04;100956.41;;;3.78
82297;BMP280;71899;51.992;8.648;2024-03-17T02:12:30;100958.44;;;3.64
82297;BMP280;71899;51.992;8.648;2024-03-17T02:14:57;100955.78;;;3.67
82297;BMP280;71899;51.992;8.648;2024-03-17T02:17:22;100952.56;;;3.94
82297;BMP280;71899;51.992;8.648;2024-03-17T02:19:47;100946.97;;;4.11
82297;BMP280;71899;51.992;8.648;2024-03-17T02:22:15;100944.47;;;4.08
82297;BMP280;71899;51.992;8.648;2024-03-17T02:24:42;100939.53;;;3.97
82297;BMP280;71899;51.992;8.648;2024-03-17T02:27:07;100934.25;;;4.02
82297;BMP280;71899;51.992;8.648;2024-03-17T02:29:32;100934.25;;;4.02
82297;BMP280;71899;51.992;8.648;2024-03-17T02:31:57;100944.63;;;4.35
82297;BMP280;71899;51.992;8.648;2024-03-17T02:34:23;100943.72;;;4.36
82297;BMP280;71899;51.992;8.648;2024-03-17T02:36:48;100937.91;;;4.61
82297;BMP280;71899;51.992;8.648;2024-03-17T02:39:14;100942.94;;;4.67
82297;BMP280;71899;51.992;8.648;2024-03-17T02:41:59;100953.63;;;4.55
82297;BMP280;71899;51.992;8.648;2024-03-17T02:44:25;100947.66;;;4.51
82297;BMP280;71899;51.992;8.648;2024-03-17T02:46:50;100950.84;;;4.28
82297;BMP280;71899;51.992;8.648;2024-03-17T02:49:15;100946.59;;;4.26
82297;BMP280;71899;51.992;8.648;2024-03-17T02:51:43;100947.53;;;4.23
82297;BMP280;71899;51.992;8.648;2024-03-17T02:54:08;100946.50;;;4.30
82297;BMP280;71899;51.992;8.648;2024-03-17T02:56:34;100947.94;;;4.40
82297;BMP280;71899;51.992;8.648;2024-03-17T02:59:00;100942.75;;;4.42
82297;BMP280;71899;51.992;8.648;2024-03-17T03:01:25;100941.84;;;4.43
82297;BMP280;71899;51.992;8.648;2024-03-17T03:03:50;100941.34;;;4.29
82297;BMP280;71899;51.992;8.648;2024-03-17T03:06:15;100934.69;;;4.19
82297;BMP280;71899;51.992;8.648;2024-03-17T03:08:44;100935.75;;;4.12
82297;BMP280;71899;51.992;8.648;2024-03-17T03:11:10;100942.50;;;4.17
82297;BMP280;71899;51.992;8.648;2024-03-17T03:13:39;100944.47;;;4.08
82297;BMP280;71899;51.992;8.648;2024-03-17T03:16:07;100940.97;;;4.10
82297;BMP280;71899;51.992;8.648;2024-03-17T03:18:33;100939.06;;;4.17
82297;BMP280;71899;51.992;8.648;2024-03-17T03:20:58;100937.72;;;4.02
82297;BMP280;71899;51.992;8.648;2024-03-17T03:23:24;100932.63;;;3.97
82297;BMP280;71899;51.992;8.648;2024-03-17T03:25:54;100945.91;;;3.82
82297;BMP280;71899;51.992;8.648;2024-03-17T03:28:19;100943.31;;;3.84
82297;BMP280;71899;51.992;8.648;2024-03-17T03:30:44;100935.72;;;3.78
82297;BMP280;71899;51.992;8.648;2024-03-17T03:33:09;100930.31;;;3.87
82297;BMP280;71899;51.992;8.648;2024-03-17T03:35:35;100937.44;;;3.77
82297;BMP280;71899;51.992;8.648;2024-03-17T03:38:00;100929.16;;;3.62
82297;BMP280;71899;51.992;8.648;2024-03-17T03:40:28;100929.81;;;3.71
82297;BMP280;71899;51.992;8.648;2024-03-17T03:42:53;100936.25;;;3.54
82297;BMP280;71899;51.992;8.648;2024-03-17T03:45:19;100937.16;;;3.53
82297;BMP280;71899;51.992;8.648;2024-03-17T03:47:45;100933.78;;;3.86
82297;BMP280;71899;51.992;8.648;2024-03-17T03:50:10;100938.75;;;3.95
82297;BMP280;71899;51.992;8.648;2024-03-17T03:52:39;100941.09;;;4.04
82297;BMP280;71899;51.992;8.648;2024-03-17T03:55:08;100935.97;;;4.03
82297;BMP280;71899;51.992;8.648;2024-03-17T03:57:35;100942.06;;;4.00
82297;BMP280;71899;51.992;8.648;2024-03-17T04:00:01;100944.13;;;3.86
82297;BMP280;71899;51.992;8.648;2024-03-17T04:02:30;100946.16;;;3.73
82297;BMP280;71899;51.992;8.648;2024-03-17T04:04:56;100942.09;;;3.98
82297;BMP280;71899;51.992;8.648;2024-03-17T04:07:22;100946.63;;;3.89
82297;BMP280;71899;51.992;8.648;2024-03-17T04:09:47;100958.19;;;3.74
82297;BMP280;71899;51.992;8.648;2024-03-17T04:12:12;100951.31;;;3.73
82297;BMP280;71899;51.992;8.648;2024-03-17T04:14:37;100946.63;;;3.89
82297;BMP280;71899;51.992;8.648;2024-03-17T04:17:03;100948.91;;;4.03
82297;BMP280;71899;51.992;8.648;2024-03-17T04:19:28;100946.09;;;4.12
82297;BMP280;71899;51.992;8.648;2024-03-17T04:21:54;100946.44;;;3.96
82297;BMP280;71899;51.992;8.648;2024-03-17T04:24:19;100942.81;;;4.04
82297;BMP280;71899;51.992;8.648;2024-03-17T04:26:44;100939.59;;;3.95
82297;BMP280;71899;51.992;8.648;2024-03-17T04:29:09;100944.34;;;4.14
82297;BMP280;71899;51.992;8.648;2024-03-17T04:31:35;100939.94;;;4.16
82297;BMP280;71899;51.992;8.648;2024-03-17T04:34:00;100940.13;;;4.10
82297;BMP280;71899;51.992;8.648;2024-03-17T04:36:25;100949.13;;;3.93
82297;BMP280;71899;51.992;8.648;2024-03-17T04:38:51;100950.19;;;3.85
82297;BMP280;71899;51.992;8.648;2024-03-17T04:41:16;100948.94;;;4.01
82297;BMP280;71899;51.992;8.648;2024-03-17T04:43:41;100947.03;;;4.08
82297;BMP280;71899;51.992;8.648;2024-03-17T04:46:07;100947.56;;;3.86
82297;BMP280;71899;51.992;8.648;2024-03-17T04:48:34;100951.16;;;3.81
82297;BMP280;71899;51.992;8.648;2024-03-17T04:50:59;100949.38;;;3.83
82297;BMP280;71899;51.992;8.648;2024-03-17T04:53:25;100959.94;;;3.74
82297;BMP280;71899;51.992;8.648;2024-03-17T04:56:03;100963.56;;;3.65
82297;BMP280;71899;51.992;8.648;2024-03-17T04:58:30;100957.59;;;3.62
82297;BMP280;71899;51.992;8.648;2024-03-17T05:00:55;100959.25;;;3.66
82297;BMP280;71899;51.992;8.648;2024-03-17T05:03:20;100961.56;;;3.78
82297;BMP280;71899;51.992;8.648;2024-03-17T05:05:45;100957.72;;;3.95
82297;BMP280;71899;51.992;8.648;2024-03-17T05:08:10;100959.50;;;3.92
82297;BMP280;71899;51.992;8.648;2024-03-17T05:10:36;100964.25;;;3.73
82297;BMP280;71899;51.992;8.648;2024-03-17T05:13:01;100963.94;;;3.85
82297;BMP280;71899;51.992;8.648;2024-03-17T05:15:27;100969.19;;;3.82
82297;BMP280;71899;51.992;8.648;2024-03-17T05:17:53;100975.78;;;3.59
82297;BMP280;71899;51.992;8.648;2024-03-17T05:20:18;100972.28;;;3.61
82297;BMP280;71899;51.992;8.648;2024-03-17T05:22:44;100968.66;;;3.70
82297;BMP280;71899;51.992;8.648;2024-03-17T05:25:11;100973.06;;;3.65
82297;BMP280;71899;51.992;8.648;2024-03-17T05:27:38;100975.41;;;3.75
82297;BMP280;71899;51.992;8.648;2024-03-17T05:30:03;100973.03;;;3.66
82297;BMP280;71899;51.992;8.648;2024-03-17T05:32:29;100970.84;;;3.48
82297;BMP280;71899;51.992;8.648;2024-03-17T05:34:54;100970.69;;;3.56
82297;BMP280;71899;51.992;8.648;2024-03-17T05:37:19;100964.88;;;3.83
82297;BMP280;71899;51.992;8.648;2024-03-17T05:39:45;100965.72;;;3.85
82297;BMP280;71899;51.992;8.648;2024-03-17T05:42:11;100970.84;;;3.86
82297;BMP280;71899;51.992;8.648;2024-03-17T05:44:37;100973.94;;;4.02
82297;BMP280;71899;51.992;8.648;2024-03-17T05:47:16;100966.25;;;3.99
82297;BMP280;71899;51.992;8.648;2024-03-17T05:49:41;100957.56;;;4.02
82297;BMP280;71899;51.992;8.648;2024-03-17T05:52:07;100965.28;;;4.03
82297;BMP280;71899;51.992;8.648;2024-03-17T05:54:33;100964.56;;;3.96
82297;BMP280;71899;51.992;8.648;2024-03-17T05:56:58;100960.13;;;4.02
82297;BMP280;71899;51.992;8.648;2024-03-17T05:59:24;100961.63;;;3.75
82297;BMP280;71899;51.992;8.648;2024-03-17T06:01:49;100952.03;;;3.78
82297;BMP280;71899;51.992;8.648;2024-03-17T06:04:14;100954.38;;;3.89
82297;BMP280;71899;51.992;8.648;2024-03-17T06:06:39;100952.91;;;4.14
82297;BMP280;71899;51.992;8.648;2024-03-17T06:09:04;100951.31;;;4.44
82297;BMP280;71899;51.992;8.648;2024-03-17T06:11:34;100956.13;;;4.58
82297;BMP280;71899;51.992;8.648;2024-03-17T06:13:59;100941.50;;;4.87
82297;BMP280;71899;51.992;8.648;2024-03-17T06:16:29;100945.06;;;5.14
82297;BMP280;71899;51.992;8.648;2024-03-17T06:18:55;100943.06;;;5.24
82297;BMP280;71899;51.992;8.648;2024-03-17T06:21:21;100938.91;;;5.47
82297;BMP280;71899;51.992;8.648;2024-03-17T06:23:46;100946.56;;;5.78
82297;BMP280;71899;51.992;8.648;2024-03-17T06:26:12;100940.50;;;5.79
82297;BMP280;71899;51.992;8.648;2024-03-17T06:28:37;100936.75;;;5.60
82297;BMP280;71899;51.992;8.648;2024-03-17T06:31:02;100940.19;;;5.62
82297;BMP280;71899;51.992;8.648;2024-03-17T06:33:32;100938.66;;;5.83
82297;BMP280;71899;51.992;8.648;2024-03-17T06:35:57;100938.31;;;5.95
82297;BMP280;71899;51.992;8.648;2024-03-17T06:38:23;100941.22;;;6.12
82297;BMP280;71899;51.992;8.648;2024-03-17T06:40:48;100944.06;;;6.56
82297;BMP280;71899;51.992;8.648;2024-03-17T06:43:15;100938.13;;;6.77
82297;BMP280;71899;51.992;8.648;2024-03-17T06:45:40;100938.63;;;6.86
82297;BMP280;71899;51.992;8.648;2024-03-17T06:48:06;100931.81;;;7.30
82297;BMP280;71899;51.992;8.648;2024-03-17T06:50:32;100936.38;;;7.47
82297;BMP280;71899;51.992;8.648;2024-03-17T06:52:57;100931.97;;;7.49
82297;BMP280;71899;51.992;8.648;2024-03-17T06:55:22;100932.69;;;7.74
82297;BMP280;71899;51.992;8.648;2024-03-17T06:57:47;100930.72;;;7.59
82297;BMP280;71899;51.992;8.648;2024-03-17T07:00:13;100935.38;;;7.73
82297;BMP280;71899;51.992;8.648;2024-03-17T07:02:40;100936.09;;;7.76
82297;BMP280;71899;51.992;8.648;2024-03-17T07:05:06;100933.31;;;7.81
82297;BMP280;71899;51.992;8.648;2024-03-17T07:07:31;100932.59;;;8.41
82297;BMP280;71899;51.992;8.648;2024-03-17T07:09:56;100940.28;;;8.84
82297;BMP280;71899;51.992;8.648;2024-03-17T07:12:22;100937.00;;;9.37
82297;BMP280;71899;51.992;8.648;2024-03-17T07:14:49;100932.63;;;10.28
82297;BMP280;71899;51.992;8.648;2024-03-17T07:17:15;100923.41;;;11.36
82297;BMP280;71899;51.992;8.648;2024-03-17T07:19:40;100937.06;;;10.60
82297;BMP280;71899;51.992;8.648;2024-03-17T07:22:05;100928.50;;;10.74
82297;BMP280;71899;51.992;8.648;2024-03-17T07:24:30;100912.78;;;11.71
82297;BMP280;71899;51.992;8.648;2024-03-17T07:26:56;100912.59;;;12.05
82297;BMP280;71899;51.992;8.648;2024-03-17T07:29:21;100914.81;;;11.81
82297;BMP280;71899;51.992;8.648;2024-03-17T07:31:47;100922.00;;;12.81
82297;BMP280;71899;51.992;8.648;2024-03-17T07:34:12;100913.53;;;13.61
82297;BMP280;71899;51.992;8.648;2024-03-17T07:36:37;100908.84;;;14.45
82297;BMP280;71899;51.992;8.648;2024-03-17T07:39:03;100891.22;;;15.21
82297;BMP280;71899;51.992;8.648;2024-03-17T07:41:28;100897.59;;;14.94
82297;BMP280;71899;51.992;8.648;2024-03-17T07:43:53;100906.84;;;14.99
82297;BMP280;71899;51.992;8.648;2024-03-17T07:46:18;100894.03;;;15.80
82297;BMP280;71899;51.992;8.648;2024-03-17T07:48:44;100889.91;;;16.00
82297;BMP280;71899;51.992;8.648;2024-03-17T07:51:13;100883.75;;;16.91
82297;BMP280;71899;51.992;8.648;2024-03-17T07:53:39;100878.94;;;17.18
82297;BMP280;71899;51.992;8.648;2024-03-17T07:56:05;100887.38;;;16.79
82297;BMP280;71899;51.992;8.648;2024-03-17T07:58:31;100883.75;;;17.13
82297;BMP280;71899;51.992;8.648;2024-03-17T08:01:01;100882.78;;;16.70
82297;BMP280;71899;51.992;8.648;2024-03-17T08:03:30;100889.09;;;16.10
82297;BMP280;71899;51.992;8.648;2024-03-17T08:05:56;100892.66;;;14.89
82297;BMP280;71899;51.992;8.648;2024-03-17T08:08:21;100897.47;;;15.08
82297;BMP280;71899;51.992;8.648;2024-03-17T08:10:47;100892.78;;;15.97
82297;BMP280;71899;51.992;8.648;2024-03-17T08:13:14;100890.94;;;15.86
82297;BMP280;71899;51.992;8.648;2024-03-17T08:15:41;100898.13;;;14.86
82297;BMP280;71899;51.992;8.648;2024-03-17T08:18:06;100897.75;;;14.27
82297;BMP280;71899;51.992;8.648;2024-03-17T08:20:36;100890.97;;;14.63
82297;BMP280;71899;51.992;8.648;2024-03-17T08:23:01;100895.38;;;14.50
82297;BMP280;71899;51.992;8.648;2024-03-17T08:25:26;100895.56;;;13.68
82297;BMP280;71899;51.992;8.648;2024-03-17T08:27:51;100903.19;;;13.17
82297;BMP280;71899;51.992;8.648;2024-03-17T08:30:17;100908.41;;;12.75
82297;BMP280;71899;51.992;8.648;2024-03-17T08:32:42;100905.91;;;13.30
82297;BMP280;71899;51.992;8.648;2024-03-17T08:35:07;100908.38;;;13.46
82297;BMP280;71899;51.992;8.648;2024-03-17T08:37:35;100908.41;;;12.89
82297;BMP280;71899;51.992;8.648;2024-03-17T08:40:00;100905.50;;;12.65
82297;BMP280;71899;51.992;8.648;2024-03-17T08:42:26;100902.25;;;12.90
82297;BMP280;71899;51.992;8.648;2024-03-17T08:44:51;100906.53;;;12.63
82297;BMP280;71899;51.992;8.648;2024-03-17T08:47:16;100902.94;;;12.50
82297;BMP280;71899;51.992;8.648;2024-03-17T08:49:42;100906.47;;;11.59
82297;BMP280;71899;51.992;8.648;2024-03-17T08:52:07;100900.78;;;11.51
82297;BMP280;71899;51.992;8.648;2024-03-17T08:54:32;100898.63;;;12.05
82297;BMP280;71899;51.992;8.648;2024-03-17T08:56:57;100890.81;;;12.19
82297;BMP280;71899;51.992;8.648;2024-03-17T08:59:23;100894.34;;;12.48
82297;BMP280;71899;51.992;8.648;2024-03-17T09:01:48;100893.72;;;12.28
82297;BMP280;71899;51.992;8.648;2024-03-17T09:04:13;100892.41;;;12.65
82297;BMP280;71899;51.992;8.648;2024-03-17T09:06:38;100895.88;;;13.22
82297;BMP280;71899;51.992;8.648;2024-03-17T09:09:04;100893.44;;;13.33
82297;BMP280;71899;51.992;8.648;2024-03-17T09:11:29;100895.69;;;13.11
82297;BMP280;71899;51.992;8.648;2024-03-17T09:13:54;100898.44;;;13.77
82297;BMP280;71899;51.992;8.648;2024-03-17T09:16:19;100900.06;;;13.93
82297;BMP280;71899;51.992;8.648;2024-03-17T09:18:47;100899.59;;;14.00
82297;BMP280;71899;51.992;8.648;2024-03-17T09:21:13;100891.75;;;13.86
82297;BMP280;71899;51.992;8.648;2024-03-17T09:23:41;100893.50;;;13.73
82297;BMP280;71899;51.992;8.648;2024-03-17T09:26:09;100897.59;;;13.77
82297;BMP280;71899;51.992;8.648;2024-03-17T09:28:36;100894.66;;;14.08
82297;BMP280;71899;51.992;8.648;2024-03-17T09:31:02;100888.81;;;13.64
82297;BMP280;71899;51.992;8.648;2024-03-17T09:33:28;100885.31;;;13.77
82297;BMP280;71899;51.992;8.648;2024-03-17T09:38:20;100884.16;;;14.21
82297;BMP280;71899;51.992;8.648;2024-03-17T09:40:48;100878.53;;;14.77
82297;BMP280;71899;51.992;8.648;2024-03-17T09:43:18;100873.38;;;15.50
82297;BMP280;71899;51.992;8.648;2024-03-17T09:45:44;100877.13;;;15.59
82297;BMP280;71899;51.992;8.648;2024-03-17T09:48:10;100881.03;;;15.77
82297;BMP280;71899;51.992;8.648;2024-03-17T09:50:39;100880.34;;;15.51
82297;BMP280;71899;51.992;8.648;2024-03-17T09:53:04;100873.38;;;15.01
82297;BMP280;71899;51.992;8.648;2024-03-17T09:55:30;100885.06;;;14.84
82297;BMP280;71899;51.992;8.648;2024-03-17T09:57:55;100882.88;;;14.53
82297;BMP280;71899;51.992;8.648;2024-03-17T10:00:20;100876.88;;;14.51
82297;BMP280;71899;51.992;8.648;2024-03-17T10:02:46;100870.78;;;15.25
82297;BMP280;71899;51.992;8.648;2024-03-17T10:05:22;100873.03;;;15.55
82297;BMP280;71899;51.992;8.648;2024-03-17T10:07:47;100872.75;;;14.85
82297;BMP280;71899;51.992;8.648;2024-03-17T10:10:14;100883.06;;;14.75
82297;BMP280;71899;51.992;8.648;2024-03-17T10:12:39;100875.72;;;14.68
82297;BMP280;71899;51.992;8.648;2024-03-17T10:15:04;100864.63;;;14.88
82297;BMP280;71899;51.992;8.648;2024-03-17T10:17:33;100873.28;;;14.77
82297;BMP280;71899;51.992;8.648;2024-03-17T10:20:10;100874.34;;;14.50
82297;BMP280;71899;51.992;8.648;2024-03-17T10:22:36;100862.56;;;14.55
82297;BMP280;71899;51.992;8.648;2024-03-17T10:25:01;100858.66;;;14.61
82297;BMP280;71899;51.992;8.648;2024-03-17T10:27:26;100862.47;;;14.44
82297;BMP280;71899;51.992;8.648;2024-03-17T10:29:52;100859.34;;;14.25
82297;BMP280;71899;51.992;8.648;2024-03-17T10:32:17;100853.59;;;14.58
82297;BMP280;71899;51.992;8.648;2024-03-17T10:34:44;100859.03;;;14.29
82297;BMP280;71899;51.992;8.648;2024-03-17T10:37:10;100843.19;;;14.69
82297;BMP280;71899;51.992;8.648;2024-03-17T10:39:36;100836.09;;;14.31
82297;BMP280;71899;51.992;8.648;2024-03-17T10:42:03;100831.09;;;14.54
82297;BMP280;71899;51.992;8.648;2024-03-17T10:44:29;100837.94;;;14.69
82297;BMP280;71899;51.992;8.648;2024-03-17T10:46:55;100840.94;;;14.25
82297;BMP280;71899;51.992;8.648;2024-03-17T10:49:23;100844.41;;;14.25
82297;BMP280;71899;51.992;8.648;2024-03-17T10:51:51;100840.66;;;14.67
82297;BMP280;71899;51.992;8.648;2024-03-17T10:54:20;100833.75;;;15.03
82297;BMP280;71899;51.992;8.648;2024-03-17T10:56:48;100844.25;;;15.15
82297;BMP280;71899;51.992;8.648;2024-03-17T10:59:13;100837.69;;;15.21
82297;BMP280;71899;51.992;8.648;2024-03-17T11:01:38;100829.81;;;15.45
82297;BMP280;71899;51.992;8.648;2024-03-17T11:04:05;100832.34;;;15.70
82297;BMP280;71899;51.992;8.648;2024-03-17T11:06:34;100837.56;;;14.86
82297;BMP280;71899;51.992;8.648;2024-03-17T11:08:59;100852.81;;;14.30
82297;BMP280;71899;51.992;8.648;2024-03-17T11:11:37;100856.25;;;14.06
82297;BMP280;71899;51.992;8.648;2024-03-17T11:14:17;100847.69;;;14.29
82297;BMP280;71899;51.992;8.648;2024-03-17T11:16:45;100852.03;;;14.55
82297;BMP280;71899;51.992;8.648;2024-03-17T11:19:15;100851.31;;;14.41
82297;BMP280;71899;51.992;8.648;2024-03-17T11:21:41;100846.31;;;14.74
82297;BMP280;71899;51.992;8.648;2024-03-17T11:24:07;100832.91;;;15.38
82297;BMP280;71899;51.992;8.648;2024-03-17T11:26:42;100822.13;;;15.54
82297;BMP280;71899;51.992;8.648;2024-03-17T11:29:23;100829.31;;;15.16
82297;BMP280;71899;51.992;8.648;2024-03-17T11:31:50;100825.34;;;14.98
82297;BMP280;71899;51.992;8.648;2024-03-17T11:34:27;100830.41;;;14.25
82297;BMP280;71899;51.992;8.648;2024-03-17T11:36:53;100831.78;;;14.05
82297;BMP280;71899;51.992;8.648;2024-03-17T11:39:19;100820.53;;;14.16
82297;BMP280;71899;51.992;8.648;2024-03-17T11:41:52;100815.38;;;14.77
82297;BMP280;71899;51.992;8.648;2024-03-17T11:47:03;100807.47;;;15.14
82297;BMP280;71899;51.992;8.648;2024-03-17T11:51:59;100814.44;;;15.51
82297;BMP280;71899;51.992;8.648;2024-03-17T11:54:25;100806.91;;;15.58
82297;BMP280;71899;51.992;8.648;2024-03-17T11:56:53;100797.66;;;15.52
82297;BMP280;71899;51.992;8.648;2024-03-17T11:59:18;100807.22;;;15.77
82297;BMP280;71899;51.992;8.648;2024-03-17T12:01:47;100804.59;;;15.29
82297;BMP280;71899;51.992;8.648;2024-03-17T12:04:13;100811.50;;;15.07
82297;BMP280;71899;51.992;8.648;2024-03-17T12:06:39;100797.41;;;15.31
82297;BMP280;71899;51.992;8.648;2024-03-17T12:09:08;100787.63;;;15.92
82297;BMP280;71899;51.992;8.648;2024-03-17T12:11:35;100786.31;;;15.52
82297;BMP280;71899;51.992;8.648;2024-03-17T12:14:02;100778.34;;;15.75
82297;BMP280;71899;51.992;8.648;2024-03-17T12:16:34;100784.28;;;15.66
82297;BMP280;71899;51.992;8.648;2024-03-17T12:19:05;100789.50;;;15.08
82297;BMP280;71899;51.992;8.648;2024-03-17T12:21:31;100788.34;;;15.35
82297;BMP280;71899;51.992;8.648;2024-03-17T12:23:56;100779.09;;;15.88
82297;BMP280;71899;51.992;8.648;2024-03-17T12:26:21;100778.44;;;16.20
82297;BMP280;71899;51.992;8.648;2024-03-17T12:28:47;100782.13;;;16.06
82297;BMP280;71899;51.992;8.648;2024-03-17T12:31:13;100776.09;;;16.72
82297;BMP280;71899;51.992;8.648;2024-03-17T12:33:39;100769.81;;;16.96
82297;BMP280;71899;51.992;8.648;2024-03-17T12:36:09;100763.44;;;17.41
82297;BMP280;71899;51.992;8.648;2024-03-17T12:38:37;100765.13;;;17.74
82297;BMP280;71899;51.992;8.648;2024-03-17T12:41:02;100766.59;;;17.88
82297;BMP280;71899;51.992;8.648;2024-03-17T12:43:32;100766.06;;;17.73
82297;BMP280;71899;51.992;8.648;2024-03-17T12:45:57;100758.66;;;17.88
82297;BMP280;71899;51.992;8.648;2024-03-17T12:48:22;100766.44;;;17.79
82297;BMP280;71899;51.992;8.648;2024-03-17T12:50:48;100768.91;;;18.02
82297;BMP280;71899;51.992;8.648;2024-03-17T12:53:16;100765.69;;;17.46
82297;BMP280;71899;51.992;8.648;2024-03-17T12:55:42;100775.38;;;17.67
82297;BMP280;71899;51.992;8.648;2024-03-17T12:58:26;100768.41;;;18.08
82297;BMP280;71899;51.992;8.648;2024-03-17T13:01:11;100777.59;;;18.34
82297;BMP280;71899;51.992;8.648;2024-03-17T13:03:37;100771.69;;;18.21
82297;BMP280;71899;51.992;8.648;2024-03-17T13:06:05;100766.28;;;18.83
82297;BMP280;71899;51.992;8.648;2024-03-17T13:08:31;100755.28;;;18.97
82297;BMP280;71899;51.992;8.648;2024-03-17T13:10:57;100754.53;;;18.46
82297;BMP280;71899;51.992;8.648;2024-03-17T13:13:22;100762.50;;;18.76
82297;BMP280;71899;51.992;8.648;2024-03-17T13:15:47;100761.44;;;18.58
82297;BMP280;71899;51.992;8.648;2024-03-17T13:18:19;100765.66;;;17.89
82297;BMP280;71899;51.992;8.648;2024-03-17T13:20:45;100763.50;;;17.62
82297;BMP280;71899;51.992;8.648;2024-03-17T13:23:10;100754.22;;;17.88
82297;BMP280;71899;51.992;8.648;2024-03-17T13:25:35;100743.34;;;18.32
82297;BMP280;71899;51.992;8.648;2024-03-17T13:28:04;100741.38;;;18.04
82297;BMP280;71899;51.992;8.648;2024-03-17T13:30:31;100745.91;;;17.93
82297;BMP280;71899;51.992;8.648;2024-03-17T13:32:58;100734.13;;;18.06
82297;BMP280;71899;51.992;8.648;2024-03-17T13:35:24;100731.59;;;18.25
82297;BMP280;71899;51.992;8.648;2024-03-17T13:37:51;100718.06;;;19.37
82297;BMP280;71899;51.992;8.648;2024-03-17T13:40:18;100717.50;;;19.82
82297;BMP280;71899;51.992;8.648;2024-03-17T13:42:51;100711.09;;;19.07
82297;BMP280;71899;51.992;8.648;2024-03-17T13:45:17;100712.00;;;18.77
82297;BMP280;71899;51.992;8.648;2024-03-17T13:47:50;100710.59;;;18.73
82297;BMP280;71899;51.992;8.648;2024-03-17T13:50:15;100701.31;;;18.98
82297;BMP280;71899;51.992;8.648;2024-03-17T13:52:41;100695.34;;;19.44
82297;BMP280;71899;51.992;8.648;2024-03-17T13:55:16;100697.25;;;19.90
82297;BMP280;71899;51.992;8.648;2024-03-17T13:57:55;100700.91;;;19.79
82297;BMP280;71899;51.992;8.648;2024-03-17T14:00:21;100697.53;;;18.91
82297;BMP280;71899;51.992;8.648;2024-03-17T14:02:47;100693.56;;;18.66
82297;BMP280;71899;51.992;8.648;2024-03-17T14:05:13;100696.03;;;18.18
82297;BMP280;71899;51.992;8.648;2024-03-17T14:07:39;100696.03;;;17.67